Startpagina
METAR-TAF:

METAR-TAF

Vliegvelden :

Chennai, India

Chennai International Airport

breedte: 13-00N, lengte: 080-11E, hoogte: 10 m

Actueel weer

Dit bericht is 32 minuten geleden gemaakt, om 01:30 UTC
Wind 8 kt uit het zuidwesten
Temperatuur 32°C
Vochtigheid 59%
Druk 1002 hPa
Zicht: 6000 m
Weinig wolken op 2000 ft

METAR: VOMM 290130Z 23008KT 6000 FEW020 32/23 Q1002 NOSIG

Tijdstip: 07:32 (02:02 UTC)

Verwachting

Dit bericht is 3 uur en het 2 minuten geleden gemaakt, om 23:00 UTC
Verwachting geldig van 29 om 00 UTC tot 30 om 06 UTC
Wind 10 kt uit het westen
Zicht: 6000 m
Weinig wolken op 2000 ft
Verspreide wolken op 10000 ft
Wijzigt naar
van 29 om 09 UTC tot 29 om 10 UTC
Wind 10 kt uit het oosten
Wijzigt naar
van 29 om 18 UTC tot 29 om 19 UTC
Wind 5 kt uit het zuidzuidwesten
Wijzigt naar
van 30 om 00 UTC tot 30 om 01 UTC
Wind 10 kt uit het westen

TAF: VOMM 282300Z 2900/3006 27010KT 6000 FEW020 SCT100 BECMG 2909/2910 10010KT BECMG 2918/2919 20005KT BECMG 3000/3001 27010KT

Waarnemingen en weersverwachtingen van meer dan 4000 vliegvelden (METAR en TAF).

De beschikbare stations zijn de gele en rode punten op de kaart.

Ga met uw muis naar het station om de naam te zien.

Klik dan om waarnemingen en weersverwachtingen te zien.

kaart wijzigen: klik op de groene knoppen met een zwart kruis om in te zoomen, op de groene knop met een streepje om uit te zoomen of op de groene pijlen voor aangrenzende kaarten.


METAR-TAF: